Terminal Aerodrome Forecast
Issued by NWS Paducah, KY

Home | Current Version | Previous Version | Text Only | Print | Product List | Glossary Off
Versions: 1 2 3 4 5 6 7 8 9 10 11 12 13 14 15 16 17

000
FTUS43 KPAH 171400 AAA
TAFPAH
TAF AMD
KPAH 171414Z 1714/1812 00000KT 2SM BR VV002
     FM171500 14004KT P6SM SCT120
     FM171900 20004KT P6SM VCSH BKN040
     FM180200 VRB02KT 5SM BR BKN080=

USA.gov is the U.S. government's official web portal to all federal, state and local government web resources and services.